Πλησιέστερες Αναφορές METAR

 

LGTS - Thessaloniki/Makedonia-Elev 7m
Distance from station: Ν 13km
Ενημερώθηκε: 25/09/2021 16:20
Αίθριος
Αίθριος
 Ανεμος από Ν
Ανεμος: Ν 20 km/h
Θερμοκρασία: 29°C
Σημείο Δρόσου: 9°C
Υγρασία: 29%
Βαρόμετρο: 1018 hPa
Συνθήκες: Αίθριος
Visibility: greater than 10 km
2021/09/25 13:20 LGTS 251320Z 19011KT CAVOK 29/09 Q1018 NOSIG
LGAV - Athens/Elef. Venizelos-Elev 94m
Distance from station: ΝΝΑ 312km
Ενημερώθηκε: 25/09/2021 16:20
Αίθριος
Αίθριος
 Ανεμος από Α
Ανεμος: Α 15 km/h
Θερμοκρασία: 27°C
Σημείο Δρόσου: 8°C
Υγρασία: 30%
Βαρόμετρο: 1020 hPa
Συνθήκες: Αίθριος
Visibility: greater than 10 km
2021/09/25 13:20 LGAV 251320Z 08008KT 040V110 CAVOK 27/08 Q1020 NOSIG
 
LGAL - Alexandroupolis-Elev 3m
Distance from station: Α 251km
Ενημερώθηκε: 25/09/2021 16:20
Few Clouds
Few Clouds
 Ανεμος από ΝΔ
Ανεμος: ΝΔ 15 km/h
Θερμοκρασία: 25°C
Σημείο Δρόσου: 16°C
Υγρασία: 57%
Βαρόμετρο: 1020 hPa
Clouds: Few Clouds
Visibility: 10 km
Cloud details: Few Clouds 762 m
2021/09/25 13:20 LGAL 251320Z 23008KT 9999 FEW025 25/16 Q1020
LGKV - Kavala/Crysoupolis-Elev 5m
Distance from station: ΑΒΑ 144km
Ενημερώθηκε: 25/09/2021 16:20
Αίθριος
Αίθριος
 Ανεμος από ΝΝΔ
Ανεμος: ΝΝΔ 7 km/h
Θερμοκρασία: 25°C
Σημείο Δρόσου: 17°C
Υγρασία: 61%
Βαρόμετρο: 1019 hPa
Συνθήκες: Αίθριος
Visibility: greater than 10 km
2021/09/25 13:20 LGKV 251320Z 21004KT CAVOK 25/17 Q1019
 
LGSK - Skiathos Island-Elev 15m
Distance from station: ΝΝΑ 168km
Ενημερώθηκε: 25/09/2021 15:50
Αίθριος
Αίθριος
 Ανεμος από ΒΑ
Ανεμος: ΒΑ 7 km/h
Θερμοκρασία: 24°C
Σημείο Δρόσου: 18°C
Υγρασία: 69%
Βαρόμετρο: 1019 hPa
Συνθήκες: Αίθριος
Visibility: greater than 10 km
2021/09/25 12:50 LGSK 251250Z 04004KT CAVOK 24/18 Q1019
LGLM - Limnos Island-Elev 5m
Distance from station: ΑΝΑ 210km
Ενημερώθηκε: 25/09/2021 16:20
Αίθριος
Αίθριος
 Ανεμος από ΝΝΑ
Ανεμος: ΝΝΑ 6 km/h
Θερμοκρασία: 25°C
Σημείο Δρόσου: 18°C
Υγρασία: 65%
Βαρόμετρο: 1019 hPa
Συνθήκες: Αίθριος
Visibility: greater than 10 km
2021/09/25 13:20 LGLM 251320Z 16003KT CAVOK 25/18 Q1019
 
LGMT - Mitilini Island-Elev 17m
Distance from station: ΑΝΑ 358km
Ενημερώθηκε: 25/09/2021 16:20
Αίθριος
Αίθριος
 Ανεμος από varies
Ανεμος: varies 6 km/h
Θερμοκρασία: 25°C
Σημείο Δρόσου: 16°C
Υγρασία: 57%
Βαρόμετρο: 1020 hPa
Συνθήκες: Αίθριος
Visibility: greater than 10 km
2021/09/25 13:20 LGMT 251320Z VRB03KT CAVOK 25/16 Q1020
LGSY - Skiros Island-Elev 15m
Distance from station: ΝΑ 227km
Ενημερώθηκε: 25/09/2021 15:50
Αίθριος
Αίθριος
 Ανεμος από ΒΒΑ
Ανεμος: ΒΒΑ 7 km/h
Θερμοκρασία: 24°C
Σημείο Δρόσου: 19°C
Υγρασία: 74%
Βαρόμετρο: 1020 hPa
Συνθήκες: Αίθριος
Visibility: greater than 10 km
2021/09/25 12:50 LGSY 251250Z 03004KT CAVOK 24/19 Q1020 BLU
 
LGKZ - Kozani-Elev 628m
Distance from station: ΔΝΔ 102km
Ενημερώθηκε: 25/09/2021 16:20

 Ανεμος από varies
Ανεμος: varies 4 km/h
Θερμοκρασία: 29°C
Σημείο Δρόσου: -6°C
Υγρασία: 10%
Βαρόμετρο: 1021 hPa
2021/09/25 13:20 LGKZ 251320Z AUTO VRB02KT //// // ////// 29/M06 Q1021 RE//
LGIO - Ioannina-Elev 476m
Distance from station: ΔΝΔ 209km
Ενημερώθηκε: 25/09/2021 16:20

 Ανεμος από varies
Ανεμος: varies 6 km/h
Θερμοκρασία: 29°C
Σημείο Δρόσου: 5°C
Υγρασία: 22%
Βαρόμετρο: 1020 hPa
2021/09/25 13:20 LGIO 251320Z AUTO VRB03KT //// // ////// 29/05 Q1020 RE//
 
LGZA - Zakinthos-Elev 3m
Distance from station: ΝΝΔ 367km
Ενημερώθηκε: 25/09/2021 15:50
Αίθριος
Αίθριος
 Ανεμος από ΝΝΑ
Ανεμος: ΝΝΑ 11 km/h
Θερμοκρασία: 28°C
Heat Index: 28°C
Σημείο Δρόσου: 17°C
Υγρασία: 51%
Βαρόμετρο: 1019 hPa
Συνθήκες: Αίθριος
Visibility: greater than 10 km
2021/09/25 12:50 LGZA 251250Z 16006KT CAVOK 28/17 Q1019
LGKR - Corfu Island-Elev 2m
Distance from station: ΔΝΔ 282km
Ενημερώθηκε: 25/09/2021 16:20
Αίθριος
Αίθριος
 Ανεμος από ΒΑ
Ανεμος: ΒΑ 7 km/h
Θερμοκρασία: 28°C
Heat Index: 28°C
Σημείο Δρόσου: 15°C
Υγρασία: 45%
Βαρόμετρο: 1019 hPa
Συνθήκες: Αίθριος
Visibility: greater than 10 km
2021/09/25 13:20 LGKR 251320Z 04004KT CAVOK 28/15 Q1019 NOSIG
 
LGSO - Syros Island-Elev 72m
Distance from station: ΝΝΑ 397km
Ενημερώθηκε: 25/09/2021 15:50
Αίθριος
Αίθριος
 Ανεμος από ΒΒΑ
Ανεμος: ΒΒΑ 11 km/h
Θερμοκρασία: 25°C
Σημείο Δρόσου: 12°C
Υγρασία: 44%
Βαρόμετρο: 1019 hPa
Συνθήκες: Αίθριος
Visibility: greater than 10 km
2021/09/25 12:50 LGSO 251250Z 02006KT CAVOK 25/12 Q1019
LGMK - Mikonos Island-Elev 123m
Distance from station: ΝΝΑ 412km
Ενημερώθηκε: 25/09/2021 16:20
Αίθριος
Αίθριος
 Ανεμος από Β
Ανεμος: Β 28 km/h
Θερμοκρασία: 24°C
Σημείο Δρόσου: 12°C
Υγρασία: 47%
Βαρόμετρο: 1019 hPa
Συνθήκες: Αίθριος
Visibility: greater than 10 km
2021/09/25 13:20 LGMK 251320Z 01015KT CAVOK 24/12 Q1019
 
LGSR - Santorini Island-Elev 40m
Distance from station: ΝΝΑ 520km
Ενημερώθηκε: 25/09/2021 16:20
Αίθριος
Αίθριος
 Ανεμος από Β
Ανεμος: Β 19 km/h
Θερμοκρασία: 25°C
Σημείο Δρόσου: 15°C
Υγρασία: 54%
Βαρόμετρο: 1019 hPa
Συνθήκες: Αίθριος
Visibility: greater than 10 km
2021/09/25 13:20 LGSR 251320Z 36010KT CAVOK 25/15 Q1019
LGKL - Kalamata-Elev 8m
Distance from station: Ν 405km
Ενημερώθηκε: 25/09/2021 16:20
Αίθριος
Αίθριος
 Ανεμος από ΝΝΑ
Ανεμος: ΝΝΑ 15 km/h
Θερμοκρασία: 28°C
Σημείο Δρόσου: 12°C
Υγρασία: 37%
Βαρόμετρο: 1019 hPa
Συνθήκες: Αίθριος
Visibility: greater than 10 km
2021/09/25 13:20 LGKL 251320Z 15008KT CAVOK 28/12 Q1019
 
LGIR - Iraklion/Crete-Elev 5m
Distance from station: ΝΝΑ 622km
Ενημερώθηκε: 25/09/2021 16:20
Few Clouds
Few Clouds
 Ανεμος από Β
Ανεμος: Β 13 km/h
Θερμοκρασία: 25°C
Σημείο Δρόσου: 21°C
Υγρασία: 79%
Βαρόμετρο: 1019 hPa
Clouds: Few Clouds
Visibility: 10 km
Cloud details: Few Clouds 762 m
2021/09/25 13:20 LGIR 251320Z 35007KT 9999 FEW025 25/21 Q1019 NOSIG
LGRP - Rhodes-Elev 5m
Distance from station: ΝΑ 649km
Ενημερώθηκε: 25/09/2021 16:20
Αίθριος
Αίθριος
 Ανεμος από Δ
Ανεμος: Δ 15 km/h
Θερμοκρασία: 27°C
Σημείο Δρόσου: 11°C
Υγρασία: 37%
Βαρόμετρο: 1016 hPa
Συνθήκες: Αίθριος
Visibility: greater than 10 km
2021/09/25 13:20 LGRP 251320Z 27008KT CAVOK 27/11 Q1016 NOSIG
 
LWOH - Ohrid/FYROM-Elev 761m
Distance from station: ΔΒΔ 188km
Ενημερώθηκε: 25/09/2021 16:30
Αίθριος
Αίθριος
 Ανεμος από Ν
Ανεμος: Ν 9 km/h
Θερμοκρασία: 21°C
Σημείο Δρόσου: 7°C
Υγρασία: 40%
Βαρόμετρο: 1022 hPa
Συνθήκες: Αίθριος
Visibility: greater than 10 km
2021/09/25 13:30 LWOH 251330Z 17005KT CAVOK 21/07 Q1022
LBSF - Sofia/Bulgaria-Elev 595m
Distance from station: Β 227km
Ενημερώθηκε: 25/09/2021 16:30
Αίθριος
Αίθριος
 Ανεμος από Δ
Ανεμος: Δ 13 km/h
Θερμοκρασία: 25°C
Σημείο Δρόσου: 10°C
Υγρασία: 39%
Βαρόμετρο: 1021 hPa
Συνθήκες: Αίθριος
Visibility: greater than 10 km
2021/09/25 13:30 LBSF 251330Z 28007KT CAVOK 25/10 Q1021 NOSIG
Σημερινά ρεκόρ Μετεωρολογικού Σταθμού
Δεν έχει σημειωθεί νέο ρεκόρ μέχρι τις 16:35 σήμερα - 25/9/2021